Date,TemperatureHighF,TemperatureAvgF,TemperatureLowF,DewpointHighF,DewpointAvgF,DewpointLowF,HumidityHigh,HumidityAvg,HumidityLow,PressureMaxIn,PressureMinIn,WindSpeedMaxMPH,WindSpeedAvgMPH,GustSpeedMaxMPH,PrecipitationSumIn
2013-1-1,51.6,44.7,34.5,47.2,40.1,21.5,99,85,46,29.88,29.74,8,1,17,0.15
2013-1-2,39.0,36.7,34.2,38.6,33.8,31.8,99,89,75,29.92,29.76,2,0,4,0.00
2013-1-3,38.7,33.7,26.6,34.8,28.4,23.6,99,81,62,29.99,29.90,11,2,17,0.00
2013-1-4,36.7,28.3,22.6,22.1,18.6,15.2,90,69,41,30.05,29.99,4,1,6,0.00
2013-1-5,47.1,40.4,21.6,28.8,21.1,14.8,85,49,28,30.11,30.01,5,0,10,0.00
2013-1-6,40.1,36.8,32.5,34.9,30.1,25.9,94,77,67,29.96,29.85,14,3,25,0.00
2013-1-7,43.7,33.9,25.3,28.3,25.2,22.4,90,72,46,30.15,27.07,13,1,21,0.00
2013-1-8,47.8,36.3,19.2,32.5,30.0,18.3,99,80,52,30.18,30.11,4,0,9,0.00
2013-1-9,59.0,46.7,27.5,54.4,45.3,27.3,99,95,80,30.25,30.16,8,0,12,0.00
2013-1-10,61.9,48.4,39.2,57.7,47.2,38.9,99,96,83,30.31,27.17,5,0,8,0.00
2013-1-11,57.0,46.6,42.3,56.8,46.0,40.0,99,98,80,30.17,29.95,4,0,8,0.24
2013-1-12,70.2,59.5,50.0,61.1,57.2,49.7,99,93,72,30.00,29.93,8,1,11,0.00
2013-1-13,64.8,59.3,52.2,59.8,57.6,51.9,99,94,82,29.96,29.89,2,1,4,0.01
2013-1-14,59.2,52.3,47.8,58.9,52.0,47.6,99,99,99,29.99,29.91,6,0,10,0.99
2013-1-15,48.4,41.4,39.9,48.1,41.1,39.3,99,99,99,29.99,29.86,1,0,4,1.24
2013-1-16,57.9,49.4,43.5,56.2,48.8,43.3,99,98,90,29.83,29.77,1,0,2,0.20
2013-1-17,47.1,33.2,29.3,46.9,32.9,27.3,99,99,92,29.96,29.70,8,0,15,0.65
2013-1-18,33.6,27.3,23.0,31.5,25.2,19.4,99,92,77,30.23,29.96,0,0,0,0.00
2013-1-19,37.9,27.0,19.4,35.2,26.4,19.0,99,98,85,30.19,29.91,3,0,5,0.02
2013-1-20,28.8,26.5,25.5,28.5,26.2,25.3,99,99,99,29.91,29.89,3,0,7,0.00
2013-1-21,41.7,32.9,25.0,31.7,20.2,5.0,95,62,42,29.87,29.71,16,3,33,0.01
2013-1-22,24.8,19.8,15.6,5.5,-4.7,-12.5,48,33,23,29.92,29.15,13,2,33,0.00
2013-1-23,36.9,25.9,17.8,27.0,11.0,-6.8,68,53,32,29.99,26.74,17,2,30,0.00
2013-1-24,37.8,23.3,15.4,28.9,6.4,-3.7,73,49,32,30.12,29.72,19,3,39,0.01
2013-1-25,38.1,21.8,14.2,37.3,16.1,1.4,99,79,52,30.14,29.75,13,1,32,0.07
2013-1-26,38.7,29.9,24.1,24.7,23.3,22.3,95,78,54,30.10,29.83,2,1,4,0.08
2013-1-27,32.2,28.3,21.4,30.3,25.4,20.2,99,89,79,30.22,30.12,0,0,2,0.01
2013-1-28,54.3,43.0,31.1,44.4,38.6,30.9,99,85,64,30.15,30.01,4,1,7,0.04
2013-1-29,64.9,52.0,41.5,53.5,46.9,38.0,99,84,59,30.03,29.86,2,1,4,0.01
2013-1-30,63.5,48.2,41.4,59.1,47.9,41.1,99,99,99,29.79,29.33,11,2,19,2.01
2013-1-31,42.8,30.3,25.9,41.3,24.1,17.1,99,78,62,29.69,29.32,17,1,28,0.01
2013-2-1,34.9,20.5,15.1,27.1,9.5,1.4,99,63,47,30.01,29.65,10,3,21,0.00
2013-2-2,35.1,25.5,14.0,29.2,19.1,9.0,99,79,48,30.01,29.77,2,0,4,0.00
2013-2-3,33.6,29.8,26.8,28.5,24.7,19.9,91,81,67,29.71,29.64,17,5,29,0.04
2013-2-4,46.8,38.2,21.4,29.3,26.4,13.6,90,65,42,29.85,29.75,6,0,10,0.00
2013-2-11,57.7,50.3,44.4,56.9,43.4,32.3,99,79,52,29.88,29.80,4,2,14,0.07
2013-2-12,54.3,42.0,32.5,34.9,25.1,20.0,98,54,26,29.86,29.75,7,2,12,0.07
2013-2-13,41.7,37.4,33.8,41.5,36.8,30.6,99,98,88,29.68,29.47,2,0,8,0.28
2013-2-14,51.3,36.7,27.9,29.4,26.5,21.3,93,70,35,29.83,29.66,8,2,12,0.28
2013-2-15,50.9,38.3,26.2,40.1,31.4,26.0,99,80,43,29.86,29.76,5,1,8,0.28
2013-2-16,30.4,26.8,19.6,24.9,18.3,9.7,80,70,60,29.78,29.61,8,4,12,0.00
2013-2-17,28.6,22.9,14.4,12.9,6.1,2.4,82,49,33,29.93,29.69,22,5,46,0.05
2013-2-18,50.2,31.9,16.0,25.5,17.6,6.6,82,57,36,30.05,29.89,3,1,4,0.00
2013-2-19,43.9,38.4,29.8,40.4,27.2,8.6,99,67,35,29.92,29.66,14,3,31,0.05
2013-2-20,42.6,28.4,26.6,11.3,8.1,-6.9,50,42,13,29.89,29.72,21,7,46,0.01
2013-2-21,37.4,24.5,21.6,16.1,12.7,8.5,70,61,35,29.95,29.85,5,0,11,0.00
2013-2-22,33.4,32.3,31.1,33.2,32.0,30.9,99,99,97,30.03,29.98,0,0,2,0.11
2013-2-23,54.7,41.8,32.9,51.5,40.6,32.7,99,96,81,29.82,29.67,2,0,3,0.13
2013-2-24,52.2,41.2,28.6,40.4,30.0,24.4,99,68,36,29.84,29.67,3,1,6,0.00
2013-2-25,43.0,32.0,25.2,26.8,24.5,22.1,92,75,52,29.91,29.83,3,1,6,0.00
2013-2-26,33.1,32.0,27.3,32.8,31.6,25.3,99,98,92,29.80,29.69,2,0,3,0.00
2013-2-27,50.0,37.7,34.0,36.2,32.0,28.7,94,81,59,29.59,29.47,3,2,7,0.12
2013-2-28,32.2,28.8,27.9,28.3,25.0,22.4,90,86,67,29.64,29.52,8,2,21,0.04
2013-3-1,34.9,30.9,27.9,28.2,25.7,23.0,92,81,68,29.69,29.63,13,2,24,0.00
2013-3-2,35.1,28.9,20.8,27.7,22.8,12.7,87,78,62,29.69,29.62,11,2,20,0.00
2013-3-3,28.8,22.8,18.5,15.9,13.3,10.7,78,67,54,29.71,29.65,15,4,28,0.00
2013-3-4,48.7,31.0,19.9,25.3,16.0,8.3,76,57,24,29.85,29.73,6,2,12,0.00
2013-3-5,42.3,36.2,31.6,42.0,34.3,26.2,99,93,80,29.81,29.45,8,1,16,0.80
2013-3-6,29.1,26.9,23.7,24.0,22.0,18.7,91,82,70,29.85,29.45,11,4,21,0.01
2013-3-7,40.5,30.7,25.3,26.1,22.6,20.6,91,72,55,30.02,29.87,12,4,24,0.00
2013-3-8,47.5,32.9,21.9,27.3,22.2,18.3,89,66,43,30.07,29.97,11,3,19,0.00
2013-3-9,66.0,42.3,23.9,30.3,26.9,21.9,97,63,22,30.09,30.03,4,1,8,0.00
2013-3-10,65.3,45.1,32.5,36.9,33.3,28.2,88,68,35,30.07,29.95,8,2,12,0.00
2013-3-11,46.9,45.2,43.5,46.7,44.7,42.5,99,98,93,29.91,29.73,1,0,3,0.46
2013-3-12,49.3,44.3,33.3,47.9,38.9,31.5,99,83,54,29.78,29.63,4,1,10,0.50
2013-3-13,39.9,33.8,27.7,30.3,21.1,13.5,89,60,49,29.87,29.80,12,3,21,0.00
2013-3-14,41.5,29.9,20.5,18.3,14.0,11.3,69,53,31,29.99,29.87,9,4,14,0.00
2013-3-15,59.5,43.0,28.6,36.8,29.6,17.9,90,62,38,29.94,29.76,8,2,13,0.00
2013-3-16,73.2,64.9,43.0,49.9,47.7,42.2,97,56,44,29.73,29.61,8,3,16,0.01
2013-3-17,64.0,50.0,36.3,53.8,46.6,36.1,99,89,62,29.90,29.74,7,2,11,0.01
2013-3-18,36.3,33.7,32.2,36.1,33.4,31.9,99,99,99,29.89,29.87,2,0,4,0.02
2013-3-19,52.3,42.9,33.8,44.9,30.8,9.3,99,69,25,29.82,29.66,9,3,15,0.02
2013-3-20,51.3,42.2,28.0,29.2,14.4,5.3,95,36,18,29.86,29.63,12,3,20,0.00
2013-3-21,32.4,24.6,18.5,26.8,10.0,5.6,93,54,38,29.67,29.56,17,3,26,0.01
2013-3-22,47.3,33.0,16.5,26.0,11.2,6.2,70,44,22,29.79,29.70,6,2,11,0.00
2013-3-23,49.5,39.4,32.5,41.0,35.0,29.7,97,84,71,29.81,29.71,2,0,3,0.00
2013-3-24,37.8,34.6,32.2,37.0,34.3,31.6,99,99,97,29.71,29.36,4,0,8,0.93
2013-3-25,36.3,29.6,26.2,31.7,24.2,20.0,99,81,59,29.54,29.36,8,0,20,0.01
2013-3-26,35.6,30.2,25.9,24.5,21.9,18.8,80,71,63,29.81,29.63,6,5,18,0.07
2013-3-27,35.6,30.1,26.4,22.5,20.4,18.3,79,68,51,29.99,29.86,8,3,18,0.00
2013-3-28,46.4,33.5,27.1,25.2,20.4,16.6,73,60,38,30.05,29.98,8,3,14,0.00
2013-3-29,50.7,37.8,24.8,32.1,23.7,16.1,89,63,25,30.08,30.00,5,1,10,0.00
2013-3-30,64.8,52.4,32.2,38.4,34.4,29.2,92,54,31,30.03,29.88,6,1,10,0.00
2013-3-31,59.4,47.8,39.4,51.4,45.0,36.4,99,91,67,29.89,29.67,9,1,21,0.27
2013-4-1,55.6,49.6,38.5,45.2,37.5,29.1,99,63,51,29.81,29.69,11,3,28,0.04
2013-4-2,55.2,40.9,29.5,31.5,22.3,13.6,83,50,25,29.95,29.81,12,2,18,0.00
2013-4-3,61.5,41.2,26.2,23.2,17.4,13.0,72,42,19,30.04,29.94,12,2,17,0.00
2013-4-4,34.9,33.3,31.5,34.6,32.6,13.6,99,97,43,30.06,29.77,2,0,3,0.19
2013-4-5,57.4,42.1,33.3,42.4,36.2,31.9,99,82,45,29.89,29.74,14,2,24,0.35
2013-4-6,70.5,48.7,30.2,41.4,35.7,30.0,99,68,29,30.03,29.89,8,1,14,0.00
2013-4-7,72.5,51.7,32.4,47.9,40.6,31.6,99,70,40,30.03,29.92,10,1,16,0.00
2013-4-8,78.8,66.9,37.2,56.2,51.5,37.0,99,61,40,30.00,29.90,11,2,16,0.00
2013-4-9,87.6,62.7,41.9,59.0,51.5,41.6,99,73,35,30.06,29.95,9,1,14,0.00
2013-4-10,54.5,51.9,49.1,53.1,51.1,48.8,99,97,93,29.97,29.95,2,0,2,0.00
2013-4-11,76.3,68.7,48.6,62.5,58.4,48.3,99,72,52,29.83,29.61,10,2,18,0.09
2013-4-12,69.3,59.8,49.1,62.2,48.6,37.0,99,69,40,29.72,29.55,11,3,18,1.41
2013-4-13,66.4,52.3,41.0,39.7,35.8,28.2,87,57,27,29.84,29.69,11,3,24,0.00
2013-4-14,74.1,60.0,35.2,49.4,43.8,34.5,99,57,33,29.95,29.85,8,1,15,0.00
2013-4-15,54.1,52.4,50.0,53.9,51.3,48.7,99,96,84,30.06,29.86,4,0,7,0.27
2013-4-16,83.7,63.6,52.3,66.7,58.2,52.1,99,85,53,30.12,30.04,8,1,12,0.01
2013-4-17,73.0,59.2,52.0,63.7,57.3,51.5,99,94,63,30.12,30.00,8,0,11,0.18
2013-4-18,78.8,61.5,50.9,63.8,57.6,19.2,99,88,54,30.01,29.84,11,1,14,0.02
2013-4-19,78.1,57.2,42.6,62.5,56.4,36.7,99,97,79,29.84,29.60,11,3,27,1.06
2013-4-20,57.4,43.6,34.2,37.8,29.8,21.2,87,60,37,30.10,29.74,14,3,27,0.01
2013-4-21,64.8,45.4,29.8,38.3,32.4,27.8,97,66,34,30.24,30.08,7,1,11,0.00
2013-4-22,68.2,50.0,37.9,41.6,36.0,33.1,89,61,38,30.21,30.05,3,1,5,0.00
2013-4-23,75.7,51.3,32.4,48.7,39.0,28.8,96,67,37,30.09,29.94,4,1,7,0.00
2013-4-24,72.1,55.3,38.8,58.5,50.0,38.6,99,85,54,29.97,29.85,3,0,5,0.04
2013-4-25,65.8,50.4,34.5,49.4,32.7,11.6,99,62,12,30.13,29.92,8,2,10,0.08
2013-4-26,68.5,52.0,33.6,42.4,36.8,29.9,86,60,33,30.21,30.13,6,1,11,0.00
2013-4-27,56.7,51.7,46.9,52.0,48.1,44.1,99,88,70,30.16,30.06,4,1,5,0.21
2013-4-28,53.2,49.7,46.6,51.7,49.4,43.1,99,99,99,30.03,29.87,4,0,6,1.03
2013-4-29,72.5,57.8,49.3,59.5,54.0,49.0,99,89,50,29.91,29.82,7,0,12,0.04
2013-4-30,81.0,61.5,54.5,62.4,57.5,54.2,99,88,51,30.04,29.86,8,1,11,0.01
2013-5-1,63.7,56.7,51.8,56.7,54.1,51.5,99,92,72,30.14,30.02,7,1,12,0.00
2013-5-2,55.9,52.0,49.1,55.7,51.7,48.8,99,99,99,30.14,30.03,3,1,4,0.22
2013-5-3,64.8,54.0,47.3,50.1,47.9,42.4,99,81,59,30.06,29.96,3,2,6,0.25
2013-5-4,55.0,46.7,41.5,48.0,44.0,39.2,99,91,67,29.95,29.88,4,2,9,0.08
2013-5-5,54.1,46.5,40.1,49.6,46.3,37.9,99,99,99,29.85,29.73,6,2,16,1.82
2013-5-6,71.4,53.5,42.1,60.7,51.7,23.0,99,94,62,30.02,29.69,8,1,17,1.76
2013-5-7,68.9,50.1,44.4,56.9,48.7,44.2,99,95,58,29.79,29.72,4,0,8,0.40
2013-5-8,64.8,52.5,44.1,59.7,51.0,41.3,99,95,76,29.89,29.76,12,1,15,0.18
2013-5-9,81.0,59.2,45.3,58.7,52.3,33.1,99,81,41,29.98,29.17,11,1,18,0.01
2013-5-10,81.1,60.5,46.0,64.9,56.1,26.7,99,88,48,29.98,29.76,11,0,17,0.22
2013-5-11,72.1,60.5,50.9,62.7,57.4,28.1,99,91,41,29.85,29.71,8,1,16,0.01
2013-5-12,60.6,53.9,48.2,52.6,43.3,22.9,91,70,39,29.83,29.73,11,2,18,0.00
2013-5-13,60.6,51.8,36.1,34.0,30.0,25.7,86,45,29,30.00,29.89,13,2,21,0.00
2013-5-14,80.1,54.4,32.5,50.2,39.7,30.3,96,64,29,30.04,29.91,9,1,14,0.00
2013-5-15,87.4,70.3,49.8,61.0,56.3,47.5,99,64,36,29.95,29.87,11,2,26,0.00
2013-5-16,66.4,59.9,55.4,57.7,55.4,52.8,99,86,63,29.89,29.85,5,1,14,0.00
2013-5-17,79.5,68.2,50.4,72.2,63.9,50.1,99,88,58,29.99,29.93,5,0,8,0.00
2013-5-18,67.3,59.9,54.7,67.0,59.7,54.4,99,99,99,30.03,29.94,6,0,9,0.00
2013-5-19,63.3,60.6,59.9,63.1,60.4,59.6,99,99,99,29.99,29.93,2,0,4,0.00
2013-5-20,84.9,69.4,57.9,70.8,65.6,57.6,99,89,57,30.01,29.92,8,1,14,0.01
2013-5-21,90.3,65.0,56.7,72.1,63.1,56.4,99,94,48,29.96,29.85,5,0,11,0.01
2013-5-22,88.0,66.1,54.9,75.9,63.3,54.6,99,92,61,29.91,29.83,4,0,9,0.00
2013-5-23,84.6,65.6,56.1,67.6,60.2,55.8,99,86,46,29.87,29.75,11,1,16,0.00
2013-5-24,63.9,55.1,44.4,56.2,41.4,36.4,99,62,41,30.05,29.77,17,4,31,0.00
2013-5-25,73.8,55.7,40.6,42.6,37.5,29.3,94,57,25,30.12,30.04,10,2,21,0.00
2013-5-26,71.1,57.8,50.2,51.9,46.1,40.8,98,67,41,30.09,30.03,6,2,10,0.00
2013-5-27,77.9,63.6,45.1,61.9,56.8,44.9,99,81,58,30.11,30.02,1,0,3,0.00
2013-5-28,81.9,67.4,52.3,68.7,60.9,52.1,99,82,57,30.08,30.02,2,1,4,0.00
2013-5-29,87.4,70.8,54.5,68.3,62.8,54.2,99,79,51,30.10,30.05,4,1,8,0.00
2013-5-30,90.3,79.8,52.2,69.8,66.1,51.9,99,65,48,30.14,30.06,10,1,14,0.00
2013-6-2,76.8,64.5,59.5,67.3,63.2,59.3,99,96,72,29.87,29.80,2,0,4,0.00
2013-6-3,79.5,65.6,56.8,64.8,61.3,56.6,99,88,60,29.95,29.79,2,0,4,0.00
2013-6-4,81.5,64.4,54.5,67.2,60.8,54.2,99,89,62,30.00,29.95,2,0,4,0.00
2013-6-5,71.6,65.6,61.2,69.8,64.9,60.9,99,97,94,30.00,29.82,1,0,2,0.15
2013-6-6,77.9,68.2,61.2,73.7,67.3,60.9,99,97,87,29.81,29.68,1,0,2,0.43
2013-6-7,74.5,67.0,60.8,70.9,65.6,60.5,99,96,81,29.76,29.62,2,0,3,0.28
2013-6-8,85.8,76.8,58.1,73.1,65.1,57.8,99,69,50,29.90,29.76,7,1,14,0.54
2013-6-9,83.1,68.4,61.3,72.3,65.9,61.1,99,92,70,30.04,29.97,1,0,2,0.76
2013-6-10,81.5,72.4,60.3,74.1,66.6,58.5,99,83,51,29.92,29.79,8,1,14,0.98
2013-6-11,83.8,67.6,59.7,68.7,62.9,59.3,99,86,60,29.92,29.83,9,1,17,0.09
2013-6-12,88.3,76.0,66.0,74.5,70.7,65.7,99,85,60,29.93,29.86,4,1,9,0.00
2013-6-13,83.5,71.5,59.9,71.9,67.2,56.6,99,87,66,29.80,29.66,3,1,5,0.40
2013-6-14,77.0,67.9,55.4,60.5,57.0,52.3,99,69,52,29.93,29.75,11,2,18,0.00
2013-6-15,87.1,66.5,49.6,65.6,57.9,49.4,99,78,49,30.02,29.96,2,0,5,0.00
2013-6-16,58.6,56.7,55.0,58.4,56.5,54.8,99,99,99,30.00,29.97,0,0,0,0.00
2013-6-17,81.0,71.3,63.5,71.1,68.2,63.2,99,91,70,29.93,29.79,2,0,3,0.02
2013-6-18,72.1,66.3,59.0,71.8,65.9,58.7,99,99,97,29.85,29.75,2,0,2,0.27
2013-6-19,82.4,71.6,55.0,71.6,65.7,54.8,99,83,57,30.04,29.85,5,0,8,0.01
2013-6-20,84.0,68.4,57.0,71.7,64.6,56.8,99,89,64,30.13,30.02,6,0,9,0.00
2013-6-21,62.2,61.5,60.8,62.0,61.2,60.5,99,99,99,30.13,30.12,0,0,0,0.00
2013-6-22,91.4,70.4,54.3,69.6,62.9,54.0,99,81,49,30.12,30.03,2,0,4,0.00
2013-6-23,86.5,69.4,56.5,74.1,65.4,56.2,99,89,55,30.11,30.04,2,0,3,0.28
2013-6-24,84.4,70.5,56.8,76.2,68.0,56.6,99,93,73,30.10,30.01,2,0,3,0.77
2013-6-25,90.3,71.2,58.8,77.8,68.1,58.6,99,91,57,30.05,29.93,6,0,9,0.01
2013-6-26,88.0,72.1,59.0,75.7,68.1,58.7,99,88,62,29.96,29.84,6,1,15,0.00
2013-6-27,84.2,70.0,60.6,76.0,68.1,60.2,99,94,71,29.87,29.69,8,1,14,0.08
2013-6-28,81.9,71.1,60.6,73.2,68.5,60.3,99,92,75,29.70,29.59,2,1,5,0.08
2013-6-29,90.3,71.6,58.8,66.5,62.8,58.5,99,78,41,29.67,29.58,2,1,6,0.08
2013-6-30,82.9,68.9,55.6,71.4,64.2,55.3,99,87,66,29.76,29.65,0,0,2,0.56
2013-7-1,84.9,74.8,61.2,75.1,70.7,60.9,99,88,68,29.82,29.74,5,1,11,0.43
2013-7-2,78.8,67.3,62.6,72.8,66.7,62.3,99,98,82,30.03,29.87,2,0,5,0.74
2013-7-3,87.1,66.5,60.6,71.0,66.2,60.4,99,99,99,30.10,30.02,4,0,9,2.51
2013-7-4,77.7,66.5,60.4,77.5,66.3,60.2,99,99,99,30.13,30.06,5,0,10,1.31
2013-7-5,87.8,70.6,64.8,78.5,69.0,62.9,99,95,67,30.14,30.07,5,1,9,0.39
2013-7-6,82.6,70.5,64.9,79.4,69.7,64.7,99,97,80,30.12,30.01,4,0,8,0.53
2013-7-7,83.7,69.7,65.7,77.8,69.0,64.7,99,98,83,30.08,29.99,4,0,8,1.24
2013-7-8,88.0,77.6,63.3,76.7,71.5,63.0,99,82,62,30.10,30.04,5,1,9,0.00
2013-7-9,93.2,75.1,62.8,77.1,70.6,62.5,99,88,53,30.08,29.99,1,0,2,0.00
2013-7-10,91.0,75.1,62.1,82.3,72.6,61.8,99,93,68,29.99,29.88,5,0,8,0.60
2013-7-11,66.6,65.5,64.4,66.3,65.2,64.1,99,99,99,29.88,29.86,2,0,2,0.00
2013-7-12,85.6,70.2,61.7,73.4,67.2,61.4,99,91,65,29.93,29.82,1,0,2,0.06
2013-7-13,75.6,66.5,62.2,71.4,66.0,62.0,99,98,85,30.04,29.93,2,0,3,0.11
2013-7-14,87.8,70.3,63.0,79.6,69.5,60.5,99,97,71,30.19,30.01,7,0,11,1.50
2013-7-15,93.9,74.8,63.9,77.2,70.3,63.6,99,88,55,30.24,30.17,4,0,7,0.01
2013-7-16,99.3,74.0,57.2,79.3,68.0,56.9,99,85,49,30.23,30.16,6,0,9,0.02
2013-7-17,92.8,73.1,64.2,81.7,70.6,59.5,99,93,60,30.20,30.10,6,0,11,0.39
2013-7-18,95.0,77.0,62.1,83.6,73.4,61.8,99,90,60,30.12,30.01,4,0,6,0.01
2013-7-19,93.0,73.9,62.2,81.5,71.3,61.8,99,92,62,30.05,29.93,6,0,11,0.00
2013-7-20,84.6,68.0,63.9,77.2,67.6,63.6,99,99,77,29.98,29.88,4,0,8,0.00
2013-7-21,88.7,73.0,61.5,77.5,70.4,61.3,99,92,62,29.94,29.87,5,0,8,0.00
2013-7-22,86.7,71.9,62.1,80.0,69.9,61.8,99,94,71,29.92,29.78,5,0,9,0.70
2013-7-23,88.0,72.1,64.2,74.5,68.7,64.0,99,90,60,29.81,29.73,7,1,11,0.25
2013-7-24,86.0,73.5,62.4,74.6,69.7,62.1,99,89,65,29.82,29.76,2,0,4,0.25
2013-7-25,82.6,69.6,58.3,72.9,66.1,58.0,99,90,68,29.97,29.81,2,0,4,0.00
2013-7-26,83.8,70.9,55.8,73.4,67.1,55.5,99,89,71,29.99,29.93,2,0,4,0.11
2013-7-27,80.6,68.7,64.0,76.6,68.0,63.8,99,98,82,29.91,29.82,3,0,7,2.19
2013-7-28,77.2,67.5,61.9,75.4,66.3,61.6,99,96,85,29.89,29.83,2,0,6,0.05
2013-7-29,90.9,70.8,50.7,66.1,60.2,50.4,99,74,29,30.11,29.95,3,0,7,0.00
2013-7-30,57.0,56.8,56.7,56.8,56.5,56.4,99,99,99,30.10,30.09,0,0,0,0.00
2013-7-31,69.3,65.8,61.0,69.0,65.6,60.7,99,99,99,30.06,29.89,2,0,4,0.27
2013-8-1,86.4,70.9,62.4,76.5,67.9,62.2,99,91,62,29.90,29.83,7,0,14,0.21
2013-8-2,90.5,70.4,55.9,75.4,65.1,55.7,99,86,52,29.98,29.87,4,0,7,0.00
2013-8-3,84.0,66.1,0.0,73.0,64.1,59.3,99,93,60,29.97,26.89,6,0,11,0.00
2013-8-4,84.0,76.2,64.9,67.2,64.2,60.6,99,68,54,29.94,29.89,5,1,10,0.01
2013-8-12,84.7,70.4,65.1,76.3,69.2,64.8,99,96,76,29.93,29.82,0,0,2,0.15
2013-8-13,80.4,68.6,59.0,75.8,66.7,58.7,99,94,82,29.84,29.79,2,1,4,0.21
2013-8-14,79.3,63.5,49.8,63.5,57.2,49.6,99,83,53,29.99,29.88,3,1,6,0.00
2013-8-15,67.8,57.8,49.3,61.1,55.8,49.0,99,94,79,30.04,29.97,0,0,2,0.00
2013-8-16,77.7,63.3,48.6,65.5,58.9,48.3,99,87,59,30.06,29.99,2,0,4,0.00
2013-8-17,66.6,60.5,52.3,64.2,59.7,52.1,99,97,86,30.07,30.02,1,0,3,0.48
2013-8-18,79.5,65.2,60.4,73.5,64.8,60.0,99,99,82,30.08,30.03,4,0,6,1.93
2013-8-19,63.7,63.6,63.5,63.4,63.3,63.2,99,99,99,30.08,30.04,0,0,1,0.08
2013-8-20,88.2,72.4,61.5,74.4,68.7,61.2,99,90,64,30.10,30.03,2,0,2,0.00
2013-8-21,86.5,70.6,62.4,77.7,69.1,62.1,99,96,75,30.11,30.05,2,0,3,0.01
2013-8-22,90.0,74.7,58.6,77.2,69.8,58.4,99,86,61,30.06,29.96,4,0,8,0.01
2013-8-23,63.3,62.4,61.7,63.1,62.1,61.3,99,99,99,29.99,29.95,0,0,0,0.00
2013-8-24,83.7,66.7,52.2,64.9,60.1,51.9,99,83,48,30.21,30.05,3,0,4,0.01
2013-8-25,83.1,65.9,48.6,66.3,59.4,48.3,99,83,56,30.26,30.18,2,0,4,0.00
2013-8-26,81.9,66.2,50.4,67.8,60.7,50.1,99,85,58,30.17,30.05,3,1,9,0.00
2013-8-27,66.2,63.5,56.7,65.9,63.2,56.4,99,99,99,30.02,30.00,4,1,8,0.00